Quick Links (Output Below):   Max & Min Temps   /   Climate Reports   /   Zone Forecasts
River Forecasts   /   Forestry Forecasts   /   Aviation Forecasts   /   Radars   /   Features

Terminal Aerodrome Forecast (Highfill)

Pick a Site:
Arkadelphia | El Dorado | Fayetteville | Fort Smith | Harrison | Highfill | Hot Springs | Jonesboro
Little Rock | Monticello | Mountain Home | Pine Bluff | Texarkana
 Forecast 

KXNA 290520Z 2906/3006 18005KT P6SM BKN100
      TEMPO 2909/2913 5SM -TSRA BKN050CB
     FM291300 18006KT P6SM VCTS BKN050CB
     FM291600 19008KT P6SM SCT050 BKN150 PROB30 2921/3001 5SM -TSRA
      BKN040CB
     FM300100 VRB03KT P6SM BKN150=


 Latest METARs (Observations) 
How to Decode METARs
05Z KXNA 290453Z AUTO 21005KT 10SM SCT095 21/18 A3002 RMK AO2 SLP152
         T02110178
         
04Z KXNA 290353Z AUTO 19003KT 10SM OVC095 23/18 A3001 RMK AO2 SLP148
         T02280183
         
03Z KXNA 290253Z 15005KT 10SM BKN100 23/18 A3000 RMK AO2 SLP144
         T02330178 53005
         
02Z KXNA 290153Z 15005KT 10SM BKN110 23/18 A2998 RMK AO2 SLP141
         T02330178
         
01Z KXNA 290053Z 18007KT 10SM CLR 24/17 A2998 RMK AO2 SLP141
         T02390167
         
00Z KXNA 282353Z 17007KT 10SM CLR 25/18 A2998 RMK AO2 SLP141 T02500178
         10283 20250 56007
         
***** Today's Observations (Above) *****


23Z KXNA 282253Z 18009KT 10SM CLR 27/17 A2999 RMK AO2 SLP143
         T02720172
         
22Z KXNA 282153Z 17009KT 10SM CLR 28/19 A2999 RMK AO2 SLP144
         T02780189
         
21Z KXNA 282053Z 14010KT 10SM CLR 27/19 A3000 RMK AO2 SLP147 T02720189
         56020
         
20Z KXNA 281953Z 15012KT 10SM CLR 26/18 A3002 RMK AO2 SLP153
         T02560183
         
***** Yesterday's Observations (Above) *****


Back to Main Page
http://www.srh.noaa.gov/lzk/qfcst.php

USA.gov is the U.S. government's official web portal to all federal, state and local government web resources and services.